KAEJ

Central Colorado Regional Airport

Buena Vista, Colorado, USA
METAR KAEJ 201515Z AUTO 32004KT 10SM CLR M08/M22 A2974 RMK AO2 T10801220
Observed Flight Rules
Feb-20 @ 15:15 UTC (2 hours ago) Visual Flight Rules
Wind Visibility Clouds
320° at 4 knots 10 miles
  • Clear skies
Temperatures Readings
Current -8°C / 18°F
Dewpoint -22°C / -8°F
Humidity 32%
Altimeter 29.74" Hg
Pressure 1007 hPa
Elevation 2422
METAR KAEJ 201515Z AUTO 32004KT 10SM CLR M08/M22 A2974 RMK AO2 T10801220
Observed Flight Rules
Feb-20 @ 15:15 UTC
(2 hours ago)
VFR
Wind Visibility
320° at 4 knots 10 miles
Clouds
  • Clear skies
Temperature Dewpoint
-8°C / 18°F -22°C / -8°F
Humidity Altimeter Pressure
32% 29.74" Hg 1007 hPa